createdAt,value
2022-09-01T00:00:36.473Z,9
2022-09-01T00:01:36.474Z,9
2022-09-01T00:02:36.452Z,9
2022-09-01T00:03:36.452Z,8
2022-09-01T00:04:36.452Z,9
2022-09-01T00:05:36.453Z,9
2022-09-01T00:06:36.453Z,11
2022-09-01T00:07:36.454Z,13
2022-09-01T00:08:36.476Z,12
2022-09-01T00:09:36.477Z,10
2022-09-01T00:10:36.477Z,9
2022-09-01T00:11:36.478Z,11
2022-09-01T00:12:36.478Z,12
2022-09-01T00:13:36.478Z,10
2022-09-01T00:14:36.479Z,9
2022-09-01T00:15:36.479Z,8
2022-09-01T00:16:36.480Z,11
2022-09-01T00:17:36.457Z,11
2022-09-01T00:18:36.458Z,14
2022-09-01T00:19:36.458Z,11
2022-09-01T00:20:36.459Z,11
2022-09-01T00:21:36.459Z,10
2022-09-01T00:22:36.459Z,9
2022-09-01T00:23:36.482Z,7
2022-09-01T00:24:36.483Z,8
2022-09-01T00:25:36.483Z,8
2022-09-01T00:26:36.483Z,8
2022-09-01T00:27:36.484Z,8
2022-09-01T00:28:36.484Z,9
2022-09-01T00:29:36.485Z,8
2022-09-01T00:30:36.485Z,9
2022-09-01T00:31:36.486Z,8
2022-09-01T00:32:36.463Z,8
2022-09-01T00:33:36.464Z,8
2022-09-01T00:34:36.464Z,6
2022-09-01T00:35:36.464Z,6
2022-09-01T00:36:36.465Z,5
2022-09-01T00:37:36.465Z,6
2022-09-01T00:38:36.488Z,6
2022-09-01T00:39:36.488Z,6
2022-09-01T00:40:36.489Z,6
2022-09-01T00:41:36.489Z,8
2022-09-01T00:42:36.490Z,5
2022-09-01T00:43:36.490Z,6
2022-09-01T00:44:36.490Z,6
2022-09-01T00:45:36.491Z,7
2022-09-01T00:46:36.491Z,7
2022-09-01T00:47:36.469Z,6
2022-09-01T00:48:36.470Z,8
2022-09-01T00:49:36.470Z,7
2022-09-01T00:50:36.470Z,7
2022-09-01T00:51:36.471Z,8
2022-09-01T00:52:36.471Z,6
2022-09-01T00:53:36.494Z,7
2022-09-01T00:54:36.494Z,8
2022-09-01T00:55:36.494Z,8
2022-09-01T00:56:36.495Z,9
2022-09-01T00:57:36.495Z,7
2022-09-01T00:58:36.496Z,7
2022-09-01T00:59:36.513Z,7
2022-09-01T01:00:36.497Z,8
2022-09-01T01:01:36.497Z,8
2022-09-01T01:02:36.538Z,10
2022-09-01T01:03:36.475Z,9
2022-09-01T01:04:36.476Z,7
2022-09-01T01:05:36.476Z,9
2022-09-01T01:06:36.476Z,8
2022-09-01T01:07:36.477Z,8
2022-09-01T01:08:36.477Z,10
2022-09-01T01:09:36.500Z,8
2022-09-01T01:10:36.500Z,8
2022-09-01T01:11:36.509Z,8
2022-09-01T01:12:36.501Z,8
2022-09-01T01:13:36.501Z,8
2022-09-01T01:14:36.502Z,6
2022-09-01T01:15:36.502Z,7
2022-09-01T01:16:36.503Z,8
2022-09-01T01:17:36.503Z,7
2022-09-01T01:18:36.481Z,5
2022-09-01T01:19:36.481Z,5
2022-09-01T01:20:36.482Z,7
2022-09-01T01:21:36.482Z,7
2022-09-01T01:22:36.483Z,7
2022-09-01T01:23:36.483Z,6
2022-09-01T01:24:36.506Z,8
2022-09-01T01:25:36.506Z,8
2022-09-01T01:26:36.531Z,11
2022-09-01T01:27:36.507Z,9
2022-09-01T01:28:36.507Z,9
2022-09-01T01:29:36.508Z,9
2022-09-01T01:30:36.508Z,12
2022-09-01T01:31:36.509Z,10
2022-09-01T01:32:36.509Z,10
2022-09-01T01:33:36.487Z,10
2022-09-01T01:34:36.487Z,11
2022-09-01T01:35:36.488Z,10
2022-09-01T01:36:36.488Z,10
2022-09-01T01:37:36.488Z,10
2022-09-01T01:38:36.489Z,10
2022-09-01T01:39:36.511Z,9
2022-09-01T01:40:36.512Z,12
2022-09-01T01:41:36.512Z,11
2022-09-01T01:42:36.513Z,11
2022-09-01T01:43:36.513Z,11
2022-09-01T01:44:36.513Z,12
2022-09-01T01:45:36.514Z,10
2022-09-01T01:46:36.514Z,9
2022-09-01T01:47:36.515Z,11
2022-09-01T01:48:36.493Z,9
2022-09-01T01:49:36.493Z,12
2022-09-01T01:50:36.493Z,10
2022-09-01T01:51:36.494Z,11
2022-09-01T01:52:36.494Z,10
2022-09-01T01:53:36.494Z,12
2022-09-01T01:54:36.517Z,10
2022-09-01T01:55:36.518Z,12
2022-09-01T01:56:36.518Z,11
2022-09-01T01:57:36.518Z,13
2022-09-01T01:58:36.519Z,11
2022-09-01T01:59:36.519Z,11
2022-09-01T02:00:36.520Z,12
2022-09-01T02:01:36.520Z,13
2022-09-01T02:02:36.520Z,13
2022-09-01T02:03:36.546Z,12
2022-09-01T02:04:36.499Z,12
2022-09-01T02:05:36.499Z,13
2022-09-01T02:06:36.499Z,14
2022-09-01T02:07:36.500Z,12
2022-09-01T02:08:36.500Z,14
2022-09-01T02:09:36.523Z,11
2022-09-01T02:10:36.523Z,12
2022-09-01T02:11:36.524Z,12
2022-09-01T02:12:36.564Z,13
2022-09-01T02:13:36.525Z,11
2022-09-01T02:14:36.525Z,12
2022-09-01T02:15:36.525Z,13
2022-09-01T02:16:36.526Z,10
2022-09-01T02:17:36.526Z,10
2022-09-01T02:18:36.527Z,11
2022-09-01T02:19:36.505Z,9
2022-09-01T02:20:36.505Z,10
2022-09-01T02:21:36.505Z,11
2022-09-01T02:22:36.506Z,11
2022-09-01T02:23:36.506Z,11
2022-09-01T02:24:36.529Z,10
2022-09-01T02:25:36.529Z,11
2022-09-01T02:26:36.530Z,12
2022-09-01T02:27:36.594Z,10
2022-09-01T02:28:36.530Z,11
2022-09-01T02:29:36.531Z,10
2022-09-01T02:30:36.531Z,12
2022-09-01T02:31:36.532Z,11
2022-09-01T02:32:36.532Z,9
2022-09-01T02:33:36.533Z,10
2022-09-01T02:34:36.510Z,10
2022-09-01T02:35:36.511Z,10
2022-09-01T02:36:36.511Z,10
2022-09-01T02:37:36.511Z,8
2022-09-01T02:38:36.512Z,11
2022-09-01T02:39:36.512Z,10
2022-09-01T02:40:36.535Z,10
2022-09-01T02:41:36.535Z,11
2022-09-01T02:42:36.536Z,12
2022-09-01T02:43:36.536Z,12
2022-09-01T02:44:36.537Z,12
2022-09-01T02:45:36.537Z,13
2022-09-01T02:46:36.537Z,15
2022-09-01T02:47:36.538Z,13
2022-09-01T02:48:36.538Z,14
2022-09-01T02:49:36.516Z,15
2022-09-01T02:50:36.517Z,12
2022-09-01T02:51:36.517Z,13
2022-09-01T02:52:36.517Z,12
2022-09-01T02:53:36.518Z,12
2022-09-01T02:54:36.518Z,12
2022-09-01T02:55:36.541Z,14
2022-09-01T02:56:36.541Z,13
2022-09-01T02:57:36.542Z,12
2022-09-01T02:58:36.542Z,12
2022-09-01T02:59:36.543Z,11
2022-09-01T03:00:36.543Z,11
2022-09-01T03:01:36.543Z,10
2022-09-01T03:02:36.544Z,10
2022-09-01T03:03:36.544Z,12
2022-09-01T03:04:36.609Z,13
2022-09-01T03:05:36.522Z,12
2022-09-01T03:06:36.523Z,9
2022-09-01T03:07:36.546Z,11
2022-09-01T03:08:36.524Z,12
2022-09-01T03:09:36.524Z,9
2022-09-01T03:10:36.555Z,9
2022-09-01T03:11:36.547Z,8
2022-09-01T03:12:36.547Z,10
2022-09-01T03:13:36.564Z,10
2022-09-01T03:14:36.548Z,9
2022-09-01T03:15:36.549Z,8
2022-09-01T03:16:36.549Z,9
2022-09-01T03:17:36.550Z,11
2022-09-01T03:18:36.550Z,10
2022-09-01T03:19:36.550Z,11
2022-09-01T03:20:36.528Z,11
2022-09-01T03:21:36.529Z,12
2022-09-01T03:22:36.529Z,12
2022-09-01T03:23:36.529Z,11
2022-09-01T03:24:36.530Z,12
2022-09-01T03:25:36.553Z,11
2022-09-01T03:26:36.553Z,10
2022-09-01T03:27:36.553Z,13
2022-09-01T03:28:36.618Z,11
2022-09-01T03:29:36.554Z,11
2022-09-01T03:30:36.555Z,12
2022-09-01T03:31:36.555Z,10
2022-09-01T03:32:36.555Z,12
2022-09-01T03:33:36.556Z,11
2022-09-01T03:34:36.556Z,11
2022-09-01T03:35:36.534Z,11
2022-09-01T03:36:36.534Z,12
2022-09-01T03:37:36.535Z,11
2022-09-01T03:38:36.535Z,11
2022-09-01T03:39:36.536Z,12
2022-09-01T03:40:36.536Z,12
2022-09-01T03:41:36.559Z,12
2022-09-01T03:42:36.559Z,12
2022-09-01T03:43:36.560Z,12
2022-09-01T03:44:36.560Z,13
2022-09-01T03:45:36.560Z,11
2022-09-01T03:46:36.561Z,9
2022-09-01T03:47:36.561Z,11
2022-09-01T03:48:36.562Z,8
2022-09-01T03:49:36.562Z,10
2022-09-01T03:50:36.540Z,7
2022-09-01T03:51:36.540Z,9
2022-09-01T03:52:36.541Z,10
2022-09-01T03:53:36.541Z,9
2022-09-01T03:54:36.542Z,12
2022-09-01T03:55:36.542Z,13
2022-09-01T03:56:36.565Z,14
2022-09-01T03:57:36.565Z,14
2022-09-01T03:58:36.566Z,14
2022-09-01T03:59:36.566Z,11
2022-09-01T04:00:36.567Z,11
2022-09-01T04:01:36.567Z,14
2022-09-01T04:02:36.567Z,16
2022-09-01T04:03:36.568Z,18
2022-09-01T04:04:36.568Z,21
2022-09-01T04:05:36.633Z,17
2022-09-01T04:06:36.546Z,14
2022-09-01T04:07:36.547Z,13
2022-09-01T04:08:36.569Z,14
2022-09-01T04:09:36.547Z,13
2022-09-01T04:10:36.548Z,15
2022-09-01T04:11:36.583Z,14
2022-09-01T04:12:36.571Z,13
2022-09-01T04:13:36.571Z,12
2022-09-01T04:14:36.588Z,15
2022-09-01T04:15:36.572Z,9
2022-09-01T04:16:36.573Z,12
2022-09-01T04:17:36.573Z,12
2022-09-01T04:18:36.573Z,12
2022-09-01T04:19:36.574Z,16
2022-09-01T04:20:36.574Z,17
2022-09-01T04:21:36.552Z,14
2022-09-01T04:22:36.553Z,11
2022-09-01T04:23:36.553Z,11
2022-09-01T04:24:36.553Z,13
2022-09-01T04:25:36.554Z,11
2022-09-01T04:26:36.576Z,11
2022-09-01T04:27:36.577Z,14
2022-09-01T04:28:36.577Z,12
2022-09-01T04:29:36.578Z,10
2022-09-01T04:30:36.578Z,16
2022-09-01T04:31:36.578Z,15
2022-09-01T04:32:36.588Z,14
2022-09-01T04:33:36.579Z,12
2022-09-01T04:34:36.580Z,17
2022-09-01T04:35:36.580Z,17
2022-09-01T04:36:36.558Z,18
2022-09-01T04:37:36.558Z,18
2022-09-01T04:38:36.559Z,18
2022-09-01T04:39:36.559Z,21
2022-09-01T04:40:36.560Z,15
2022-09-01T04:41:36.560Z,17
2022-09-01T04:42:36.583Z,15
2022-09-01T04:43:36.583Z,18
2022-09-01T04:44:36.584Z,16
2022-09-01T04:45:36.584Z,22
2022-09-01T04:46:36.584Z,21
2022-09-01T04:47:36.585Z,17
2022-09-01T04:48:36.585Z,16
2022-09-01T04:49:36.586Z,19
2022-09-01T04:50:36.586Z,17
2022-09-01T04:51:36.564Z,18
2022-09-01T04:52:36.564Z,18
2022-09-01T04:53:36.565Z,19
2022-09-01T04:54:36.565Z,17
2022-09-01T04:55:36.565Z,17
2022-09-01T04:56:36.566Z,16
2022-09-01T04:57:36.588Z,17
2022-09-01T04:58:36.589Z,18
2022-09-01T04:59:36.589Z,14
2022-09-01T05:00:36.590Z,13
2022-09-01T05:01:36.590Z,14
2022-09-01T05:02:36.591Z,13
2022-09-01T05:03:36.591Z,10
2022-09-01T05:04:36.591Z,14
2022-09-01T05:05:36.592Z,15
2022-09-01T05:06:36.570Z,14
2022-09-01T05:07:36.570Z,12
2022-09-01T05:08:36.571Z,12
2022-09-01T05:09:36.571Z,11
2022-09-01T05:10:36.571Z,11
2022-09-01T05:11:36.572Z,15
2022-09-01T05:12:36.594Z,12
2022-09-01T05:13:36.595Z,12
2022-09-01T05:14:36.595Z,12
2022-09-01T05:15:36.596Z,11
2022-09-01T05:16:36.596Z,16
2022-09-01T05:17:36.596Z,13
2022-09-01T05:18:36.597Z,14
2022-09-01T05:19:36.597Z,15
2022-09-01T05:20:36.598Z,14
2022-09-01T05:21:36.615Z,15
2022-09-01T05:22:36.576Z,18
2022-09-01T05:23:36.576Z,24
2022-09-01T05:24:37.618Z,21
2022-09-01T05:25:36.577Z,20
2022-09-01T05:26:36.578Z,16
2022-09-01T05:27:36.600Z,14
2022-09-01T05:28:36.601Z,16
2022-09-01T05:29:36.601Z,18
2022-09-01T05:30:36.602Z,18
2022-09-01T05:31:36.602Z,15
2022-09-01T05:32:36.603Z,21
2022-09-01T05:33:36.603Z,20
2022-09-01T05:34:36.603Z,20
2022-09-01T05:35:36.604Z,21
2022-09-01T05:36:36.582Z,18
2022-09-01T05:37:36.582Z,24
2022-09-01T05:38:36.582Z,25
2022-09-01T05:39:36.583Z,17
2022-09-01T05:40:36.583Z,16
2022-09-01T05:41:36.584Z,21
2022-09-01T05:42:36.606Z,27
2022-09-01T05:43:36.607Z,27
2022-09-01T05:44:36.607Z,23
2022-09-01T05:45:36.608Z,29
2022-09-01T05:46:36.608Z,30
2022-09-01T05:47:36.608Z,32
2022-09-01T05:48:36.609Z,27
2022-09-01T05:49:36.609Z,28
2022-09-01T05:50:36.610Z,30
2022-09-01T05:51:36.587Z,31
2022-09-01T05:52:36.588Z,23
2022-09-01T05:53:36.588Z,24
2022-09-01T05:54:36.589Z,26
2022-09-01T05:55:36.589Z,23
2022-09-01T05:56:36.589Z,25
2022-09-01T05:57:36.612Z,27
2022-09-01T05:58:36.612Z,27
2022-09-01T05:59:36.613Z,22
2022-09-01T06:00:36.614Z,22
2022-09-01T06:01:36.614Z,20
2022-09-01T06:02:36.614Z,22
2022-09-01T06:03:36.615Z,20
2022-09-01T06:04:36.615Z,23
2022-09-01T06:05:36.616Z,21
2022-09-01T06:06:36.593Z,24
2022-09-01T06:07:36.594Z,18
2022-09-01T06:08:36.594Z,18
2022-09-01T06:09:36.595Z,23
2022-09-01T06:10:36.595Z,17
2022-09-01T06:11:36.595Z,20
2022-09-01T06:12:36.618Z,16
2022-09-01T06:13:36.619Z,22
2022-09-01T06:14:36.619Z,19
2022-09-01T06:15:36.619Z,17
2022-09-01T06:16:36.620Z,17
2022-09-01T06:17:36.620Z,21
2022-09-01T06:18:36.661Z,16
2022-09-01T06:19:36.621Z,23
2022-09-01T06:20:36.622Z,19
2022-09-01T06:21:36.622Z,19
2022-09-01T06:22:36.600Z,16
2022-09-01T06:23:36.600Z,18
2022-09-01T06:24:43.649Z,23
2022-09-01T06:25:36.601Z,26
2022-09-01T06:26:36.601Z,23
2022-09-01T06:27:36.624Z,18
2022-09-01T06:28:36.624Z,18
2022-09-01T06:29:36.625Z,20
2022-09-01T06:30:36.625Z,25
2022-09-01T06:31:36.626Z,27
2022-09-01T06:32:36.626Z,29
2022-09-01T06:33:36.627Z,30
2022-09-01T06:34:36.627Z,33
2022-09-01T06:35:36.627Z,35
2022-09-01T06:36:36.669Z,35
2022-09-01T06:37:36.606Z,28
2022-09-01T06:38:36.606Z,32
2022-09-01T06:39:36.607Z,37
2022-09-01T06:40:36.607Z,27
2022-09-01T06:41:36.607Z,34
2022-09-01T06:42:36.642Z,27
2022-09-01T06:43:36.630Z,32
2022-09-01T06:44:36.631Z,27
2022-09-01T06:45:36.648Z,30
2022-09-01T06:46:36.632Z,26
2022-09-01T06:47:36.632Z,29
2022-09-01T06:48:36.673Z,30
2022-09-01T06:49:36.633Z,31
2022-09-01T06:50:36.634Z,40
2022-09-01T06:51:36.634Z,52
2022-09-01T06:52:36.612Z,41
2022-09-01T06:53:36.612Z,33
2022-09-01T06:54:36.613Z,44
2022-09-01T06:55:36.613Z,36
2022-09-01T06:56:36.614Z,42
2022-09-01T06:57:36.614Z,40
2022-09-01T06:58:36.637Z,42
2022-09-01T06:59:36.637Z,33
2022-09-01T07:00:36.637Z,44
2022-09-01T07:01:36.638Z,34
2022-09-01T07:02:36.638Z,33
2022-09-01T07:03:36.639Z,33
2022-09-01T07:04:36.639Z,36
2022-09-01T07:05:36.640Z,34
2022-09-01T07:06:36.640Z,37
2022-09-01T07:07:36.618Z,37
2022-09-01T07:08:36.619Z,45
2022-09-01T07:09:36.619Z,41
2022-09-01T07:10:36.619Z,40
2022-09-01T07:11:36.620Z,44
2022-09-01T07:12:36.620Z,48
2022-09-01T07:13:36.643Z,36
2022-09-01T07:14:36.643Z,37
2022-09-01T07:15:36.644Z,34
2022-09-01T07:16:36.644Z,30
2022-09-01T07:17:36.645Z,35
2022-09-01T07:18:36.645Z,33
2022-09-01T07:19:36.646Z,33
2022-09-01T07:20:36.646Z,36
2022-09-01T07:21:36.646Z,40
2022-09-01T07:22:36.624Z,33
2022-09-01T07:23:36.625Z,32
2022-09-01T07:24:41.384Z,30
2022-09-01T07:25:36.626Z,27
2022-09-01T07:26:36.626Z,32
2022-09-01T07:27:36.627Z,30
2022-09-01T07:28:36.649Z,31
2022-09-01T07:29:36.650Z,32
2022-09-01T07:30:36.650Z,33
2022-09-01T07:31:36.651Z,29
2022-09-01T07:32:36.651Z,32
2022-09-01T07:33:36.651Z,35
2022-09-01T07:34:36.652Z,35
2022-09-01T07:35:36.653Z,38
2022-09-01T07:36:36.653Z,39
2022-09-01T07:37:36.631Z,38
2022-09-01T07:38:36.631Z,35
2022-09-01T07:39:36.632Z,39
2022-09-01T07:40:36.632Z,38
2022-09-01T07:41:36.633Z,40
2022-09-01T07:42:36.633Z,32
2022-09-01T07:43:36.656Z,28
2022-09-01T07:44:36.656Z,25
2022-09-01T07:45:36.657Z,34
2022-09-01T07:46:36.657Z,32
2022-09-01T07:47:36.658Z,28
2022-09-01T07:48:36.658Z,27
2022-09-01T07:49:36.659Z,26
2022-09-01T07:50:36.659Z,27
2022-09-01T07:51:36.659Z,35
2022-09-01T07:52:36.637Z,33
2022-09-01T07:53:36.638Z,38
2022-09-01T07:54:36.638Z,36
2022-09-01T07:55:36.639Z,39
2022-09-01T07:56:36.639Z,39
2022-09-01T07:57:36.640Z,38
2022-09-01T07:58:36.662Z,32
2022-09-01T07:59:36.663Z,41
2022-09-01T08:00:36.663Z,49
2022-09-01T08:01:36.664Z,47
2022-09-01T08:02:36.664Z,48
2022-09-01T08:03:36.665Z,48
2022-09-01T08:04:36.665Z,40
2022-09-01T08:05:36.666Z,36
2022-09-01T08:06:36.666Z,37
2022-09-01T08:07:36.731Z,47
2022-09-01T08:08:36.644Z,42
2022-09-01T08:09:36.645Z,41
2022-09-01T08:10:36.667Z,46
2022-09-01T08:11:36.646Z,45
2022-09-01T08:12:36.646Z,50
2022-09-01T08:13:36.684Z,45
2022-09-01T08:14:36.669Z,48
2022-09-01T08:15:36.670Z,51
2022-09-01T08:16:36.687Z,38
2022-09-01T08:17:36.671Z,37
2022-09-01T08:18:36.671Z,42
2022-09-01T08:20:36.672Z,53
2022-09-01T08:21:36.673Z,53
2022-09-01T08:22:36.714Z,49
2022-09-01T08:23:36.651Z,46
2022-09-01T08:24:36.651Z,43
2022-09-01T08:25:36.652Z,42
2022-09-01T08:26:36.652Z,42
2022-09-01T08:27:36.653Z,43
2022-09-01T08:28:36.676Z,40
2022-09-01T08:29:36.676Z,42
2022-09-01T08:30:36.677Z,40
2022-09-01T08:31:36.701Z,37
2022-09-01T08:32:36.677Z,29
2022-09-01T08:33:36.678Z,30
2022-09-01T08:34:36.678Z,34
2022-09-01T08:35:36.679Z,40
2022-09-01T08:36:36.679Z,30
2022-09-01T08:37:36.657Z,28
2022-09-01T08:38:36.658Z,30
2022-09-01T08:39:36.658Z,38
2022-09-01T08:40:36.659Z,34
2022-09-01T08:41:36.659Z,33
2022-09-01T08:42:36.660Z,32
2022-09-01T08:43:36.683Z,41
2022-09-01T08:44:36.683Z,45
2022-09-01T08:45:36.683Z,41
2022-09-01T08:46:36.684Z,43
2022-09-01T08:47:36.684Z,34
2022-09-01T08:48:36.685Z,29
2022-09-01T08:49:36.686Z,40
2022-09-01T08:50:36.686Z,38
2022-09-01T08:51:36.686Z,36
2022-09-01T08:52:36.664Z,44
2022-09-01T08:53:36.665Z,42
2022-09-01T08:54:36.665Z,38
2022-09-01T08:55:36.666Z,35
2022-09-01T08:56:36.666Z,42
2022-09-01T08:57:36.667Z,50
2022-09-01T08:58:36.689Z,48
2022-09-01T08:59:36.690Z,43
2022-09-01T09:00:36.691Z,56
2022-09-01T09:01:36.691Z,45
2022-09-01T09:02:36.692Z,58
2022-09-01T09:03:36.692Z,50
2022-09-01T09:04:36.693Z,51
2022-09-01T09:05:36.693Z,46
2022-09-01T09:06:36.694Z,45
2022-09-01T09:07:36.672Z,50
2022-09-01T09:08:36.672Z,48
2022-09-01T09:09:36.673Z,63
2022-09-01T09:10:36.673Z,55
2022-09-01T09:11:36.673Z,57
2022-09-01T09:12:36.674Z,54
2022-09-01T09:13:36.697Z,50
2022-09-01T09:14:36.697Z,52
2022-09-01T09:15:36.698Z,51
2022-09-01T09:16:36.698Z,44
2022-09-01T09:17:36.699Z,48
2022-09-01T09:18:36.699Z,48
2022-09-01T09:19:36.700Z,42
2022-09-01T09:20:36.700Z,42
2022-09-01T09:21:36.701Z,43
2022-09-01T09:22:36.679Z,45
2022-09-01T09:23:36.679Z,43
2022-09-01T09:24:36.680Z,39
2022-09-01T09:25:36.680Z,38
2022-09-01T09:26:36.681Z,45
2022-09-01T09:27:36.681Z,48
2022-09-01T09:28:36.704Z,44
2022-09-01T09:29:36.705Z,39
2022-09-01T09:30:36.705Z,49
2022-09-01T09:31:36.705Z,47
2022-09-01T09:32:36.706Z,45
2022-09-01T09:33:36.706Z,55
2022-09-01T09:34:36.731Z,53
2022-09-01T09:35:36.708Z,43
2022-09-01T09:36:36.708Z,46
2022-09-01T09:37:36.750Z,45
2022-09-01T09:38:36.686Z,44
2022-09-01T09:39:36.687Z,45
2022-09-01T09:40:36.687Z,36
2022-09-01T09:41:36.688Z,34
2022-09-01T09:43:36.719Z,45
2022-09-01T09:44:36.712Z,37
2022-09-01T09:45:36.712Z,36
2022-09-01T09:46:36.713Z,36
2022-09-01T09:47:36.713Z,35
2022-09-01T09:48:36.714Z,31
2022-09-01T09:49:36.714Z,39
2022-09-01T09:50:36.715Z,41
2022-09-01T09:51:36.715Z,35
2022-09-01T09:52:36.741Z,36
2022-09-01T09:53:36.694Z,48
2022-09-01T09:54:36.694Z,47
2022-09-01T09:55:36.695Z,40
2022-09-01T09:56:36.695Z,55
2022-09-01T09:57:36.695Z,54
2022-09-01T09:58:36.718Z,44
2022-09-01T09:59:36.719Z,56
2022-09-01T10:00:36.719Z,60
2022-09-01T10:01:36.760Z,66
2022-09-01T10:02:36.720Z,60
2022-09-01T10:03:36.721Z,65
2022-09-01T10:04:36.721Z,47
2022-09-01T10:05:36.722Z,69
2022-09-01T10:06:36.722Z,59
2022-09-01T10:07:36.723Z,62
2022-09-01T10:08:36.701Z,54
2022-09-01T10:09:36.701Z,63
2022-09-01T10:10:36.702Z,43
2022-09-01T10:11:36.702Z,59
2022-09-01T10:12:36.703Z,64
2022-09-01T10:13:36.703Z,65
2022-09-01T10:14:36.726Z,62
2022-09-01T10:15:36.726Z,75
2022-09-01T10:16:36.727Z,61
2022-09-01T10:17:36.727Z,57
2022-09-01T10:18:36.728Z,61
2022-09-01T10:19:36.728Z,63
2022-09-01T10:20:36.729Z,67
2022-09-01T10:21:36.729Z,63
2022-09-01T10:22:36.730Z,84
2022-09-01T10:23:36.708Z,78
2022-09-01T10:24:36.708Z,65
2022-09-01T10:25:36.709Z,71
2022-09-01T10:26:36.709Z,59
2022-09-01T10:27:36.710Z,66
2022-09-01T10:28:36.710Z,68
2022-09-01T10:29:36.733Z,79
2022-09-01T10:30:36.734Z,83
2022-09-01T10:31:36.734Z,66
2022-09-01T10:32:36.735Z,66
2022-09-01T10:33:36.735Z,64
2022-09-01T10:34:36.736Z,69
2022-09-01T10:35:36.736Z,62
2022-09-01T10:36:36.736Z,57
2022-09-01T10:37:36.737Z,61
2022-09-01T10:38:36.715Z,66
2022-09-01T10:39:36.715Z,69
2022-09-01T10:40:36.716Z,69
2022-09-01T10:41:36.716Z,78
2022-09-01T10:42:36.717Z,71
2022-09-01T10:43:36.717Z,64
2022-09-01T10:44:36.740Z,67
2022-09-01T10:45:36.741Z,58
2022-09-01T10:46:36.741Z,54
2022-09-01T10:47:36.742Z,43
2022-09-01T10:48:36.742Z,44
2022-09-01T10:49:36.743Z,46
2022-09-01T10:50:36.743Z,44
2022-09-01T10:51:36.744Z,45
2022-09-01T10:52:36.744Z,53
2022-09-01T10:53:36.722Z,50
2022-09-01T10:54:36.723Z,54
2022-09-01T10:55:36.723Z,59
2022-09-01T10:56:36.724Z,63
2022-09-01T10:57:36.724Z,68
2022-09-01T10:58:36.725Z,66
2022-09-01T10:59:36.748Z,59
2022-09-01T11:00:36.748Z,67
2022-09-01T11:01:36.749Z,62
2022-09-01T11:02:36.749Z,63
2022-09-01T11:03:36.750Z,68
2022-09-01T11:04:36.750Z,68
2022-09-01T11:05:36.751Z,74
2022-09-01T11:06:36.751Z,66
2022-09-01T11:07:36.752Z,60
2022-09-01T11:08:36.777Z,60
2022-09-01T11:09:36.730Z,57
2022-09-01T11:10:36.731Z,65
2022-09-01T11:11:36.731Z,62
2022-09-01T11:12:36.732Z,63
2022-09-01T11:13:36.732Z,51
2022-09-01T11:14:36.755Z,54
2022-09-01T11:15:36.755Z,52
2022-09-01T11:16:36.756Z,56
2022-09-01T11:17:36.796Z,50
2022-09-01T11:18:36.757Z,48
2022-09-01T11:19:36.758Z,50
2022-09-01T11:20:36.758Z,45
2022-09-01T11:21:36.759Z,42
2022-09-01T11:22:36.759Z,45
2022-09-01T11:23:36.760Z,39
2022-09-01T11:24:36.738Z,45
2022-09-01T11:25:36.738Z,41
2022-09-01T11:26:36.739Z,51
2022-09-01T11:27:36.739Z,39
2022-09-01T11:28:36.740Z,40
2022-09-01T11:29:36.740Z,40
2022-09-01T11:30:36.763Z,33
2022-09-01T11:31:36.763Z,35
2022-09-01T11:32:36.764Z,43
2022-09-01T11:33:36.765Z,45
2022-09-01T11:34:36.766Z,44
2022-09-01T11:35:36.766Z,38
2022-09-01T11:36:36.766Z,45
2022-09-01T11:37:36.767Z,39
2022-09-01T11:38:36.767Z,33
2022-09-01T11:39:36.745Z,41
2022-09-01T11:40:36.746Z,45
2022-09-01T11:41:36.746Z,55
2022-09-01T11:42:36.747Z,53
2022-09-01T11:43:36.747Z,59
2022-09-01T11:44:36.748Z,56
2022-09-01T11:45:36.771Z,56
2022-09-01T11:46:36.771Z,58
2022-09-01T11:47:36.771Z,50
2022-09-01T11:48:36.772Z,45
2022-09-01T11:49:36.773Z,44
2022-09-01T11:50:36.773Z,38
2022-09-01T11:51:36.774Z,37
2022-09-01T11:52:36.774Z,45
2022-09-01T11:53:36.775Z,47
2022-09-01T11:54:36.753Z,46
2022-09-01T11:55:36.753Z,50
2022-09-01T11:56:36.754Z,50
2022-09-01T11:57:36.754Z,52
2022-09-01T11:58:36.755Z,53
2022-09-01T11:59:36.755Z,48
2022-09-01T12:00:36.778Z,45
2022-09-01T12:01:36.779Z,40
2022-09-01T12:02:36.779Z,43
2022-09-01T12:03:36.780Z,45
2022-09-01T12:04:36.780Z,44
2022-09-01T12:05:36.781Z,44
2022-09-01T12:06:36.781Z,42
2022-09-01T12:07:36.782Z,42
2022-09-01T12:08:36.783Z,49
2022-09-01T12:09:36.761Z,58
2022-09-01T12:10:36.761Z,50
2022-09-01T12:11:36.762Z,57
2022-09-01T12:12:36.762Z,55
2022-09-01T12:13:36.763Z,51
2022-09-01T12:14:36.763Z,45
2022-09-01T12:15:36.786Z,54
2022-09-01T12:16:36.787Z,49
2022-09-01T12:17:36.787Z,53
2022-09-01T12:18:36.788Z,57
2022-09-01T12:19:36.789Z,52
2022-09-01T12:20:36.789Z,53
2022-09-01T12:21:36.790Z,59
2022-09-01T12:22:36.790Z,59
2022-09-01T12:23:36.791Z,53
2022-09-01T12:24:36.769Z,51
2022-09-01T12:25:36.770Z,56
2022-09-01T12:26:36.770Z,54
2022-09-01T12:27:36.771Z,66
2022-09-01T12:28:36.772Z,64
2022-09-01T12:29:36.772Z,68
2022-09-01T12:30:36.795Z,62
2022-09-01T12:31:36.796Z,56
2022-09-01T12:32:36.796Z,52
2022-09-01T12:33:36.797Z,51
2022-09-01T12:34:36.797Z,52
2022-09-01T12:35:36.798Z,49
2022-09-01T12:36:36.799Z,45
2022-09-01T12:37:36.799Z,46
2022-09-01T12:38:36.800Z,41
2022-09-01T12:39:36.817Z,41
2022-09-01T12:40:36.778Z,32
2022-09-01T12:41:36.779Z,35
2022-09-01T12:42:36.801Z,50
2022-09-01T12:43:36.780Z,44
2022-09-01T12:44:36.781Z,39
2022-09-01T12:45:36.804Z,39
2022-09-01T12:46:36.804Z,41
2022-09-01T12:47:36.805Z,42
2022-09-01T12:48:36.805Z,45
2022-09-01T12:49:36.806Z,44
2022-09-01T12:50:36.807Z,40
2022-09-01T12:51:36.807Z,39
2022-09-01T12:52:36.808Z,39
2022-09-01T12:53:36.808Z,36
2022-09-01T12:54:36.834Z,38
2022-09-01T12:55:36.787Z,47
2022-09-01T12:56:36.787Z,40
2022-09-01T12:57:36.788Z,44
2022-09-01T12:58:36.789Z,41
2022-09-01T12:59:36.789Z,50
2022-09-01T13:00:36.812Z,58
2022-09-01T13:01:36.813Z,59
2022-09-01T13:02:36.813Z,55
2022-09-01T13:03:36.854Z,48
2022-09-01T13:04:36.814Z,41
2022-09-01T13:05:36.815Z,42
2022-09-01T13:06:36.816Z,49
2022-09-01T13:07:36.816Z,39
2022-09-01T13:08:36.817Z,40
2022-09-01T13:09:36.817Z,35
2022-09-01T13:10:36.795Z,47
2022-09-01T13:11:36.796Z,37
2022-09-01T13:12:36.797Z,41
2022-09-01T13:13:36.797Z,39
2022-09-01T13:14:36.798Z,46
2022-09-01T13:15:36.798Z,59
2022-09-01T13:16:36.821Z,48
2022-09-01T13:17:36.822Z,53
2022-09-01T13:18:36.822Z,48
2022-09-01T13:19:36.823Z,46
2022-09-01T13:20:36.823Z,47
2022-09-01T13:21:36.824Z,49
2022-09-01T13:22:36.825Z,36
2022-09-01T13:23:36.825Z,50
2022-09-01T13:24:36.826Z,52
2022-09-01T13:25:36.804Z,56
2022-09-01T13:26:36.804Z,53
2022-09-01T13:27:36.805Z,48
2022-09-01T13:28:36.806Z,49
2022-09-01T13:29:36.806Z,57
2022-09-01T13:30:36.807Z,68
2022-09-01T13:31:36.830Z,61
2022-09-01T13:32:36.830Z,45
2022-09-01T13:33:36.831Z,44
2022-09-01T13:34:36.831Z,41
2022-09-01T13:35:36.832Z,56
2022-09-01T13:36:36.832Z,42
2022-09-01T13:37:36.833Z,44
2022-09-01T13:38:36.834Z,53
2022-09-01T13:39:36.834Z,53
2022-09-01T13:40:36.812Z,57
2022-09-01T13:41:36.813Z,51
2022-09-01T13:42:36.813Z,43
2022-09-01T13:43:36.814Z,49
2022-09-01T13:44:36.814Z,54
2022-09-01T13:46:36.838Z,56
2022-09-01T13:47:36.838Z,50
2022-09-01T13:48:36.839Z,48
2022-09-01T13:49:36.840Z,62
2022-09-01T13:50:36.840Z,61
2022-09-01T13:51:36.841Z,58
2022-09-01T13:52:36.841Z,44
2022-09-01T13:53:36.842Z,55
2022-09-01T13:54:36.843Z,53
2022-09-01T13:55:36.821Z,60
2022-09-01T13:56:36.821Z,43
2022-09-01T13:57:36.822Z,45
2022-09-01T13:58:36.822Z,45
2022-09-01T13:59:36.823Z,43
2022-09-01T14:00:36.823Z,48
2022-09-01T14:01:36.846Z,58
2022-09-01T14:02:36.847Z,65
2022-09-01T14:03:36.847Z,59
2022-09-01T14:04:36.848Z,50
2022-09-01T14:05:36.849Z,49
2022-09-01T14:06:36.849Z,52
2022-09-01T14:07:36.914Z,55
2022-09-01T14:08:36.850Z,42
2022-09-01T14:09:36.851Z,40
2022-09-01T14:10:36.892Z,49
2022-09-01T14:11:36.829Z,45
2022-09-01T14:12:36.830Z,49
2022-09-01T14:13:36.831Z,35
2022-09-01T14:14:36.831Z,45
2022-09-01T14:15:36.832Z,44
2022-09-01T14:16:36.858Z,44
2022-09-01T14:17:36.855Z,54
2022-09-01T14:18:36.855Z,38
2022-09-01T14:19:36.873Z,49
2022-09-01T14:20:36.857Z,48
2022-09-01T14:21:36.857Z,47